FMEE/RUN METAR and TAF weather

Enter ICAO airport designator
Station Type Date Time Source
FMEE METAR 2021/04/17 02:30 UTC NOAA

FMEE 170230Z AUTO 26005KT 9999 SCT029/// BKN054/// ///TCU 25/22 Q1011 TEMPO 2500 SHRA


Station Type Date Time Source
FMEE Decoded METAR 2021/04/17 02:30 UTC NOAA

Saint-Denis / Gillot, Reunion (FMEE) 20-53S 055-31E 25M
Apr 16, 2021 - 10:30 PM EDT / 2021.04.17 0230 UTC
Wind: from the W (260 degrees) at 6 MPH (5 KT):0
Visibility: greater than 7 mile(s):0
Sky conditions: mostly cloudy
Weather: Towering cumulus clouds observed
Temperature: 77 F (25 C)
Dew Point: 71 F (22 C)
Relative Humidity: 83%
Pressure (altimeter): 29.85 in. Hg (1011 hPa)
ob: FMEE 170230Z AUTO 26005KT 9999 SCT029/// BKN054/// ///TCU 25/22 Q1011 TEMPO 2500 SHRA
cycle: 2

Station Type Date Time Source
FMEE TAF 2021/04/16 18:09 UTC NOAA

TAF FMEE 161700Z 1618/1724 16006KT 9999 SCT020 BKN030
TEMPO 1618/1703 2000 SHRA SCT010CB BKN015TCU
BECMG 1703/1705 36010KT PROB40
TEMPO 1709/1718 3000 TSRA BKN014CB

Example: see airport list